RYR14KL LPFR-EGFF
Flight info
| Callsign | RYR14KL |
|---|---|
| Flight time | 2h 9m |
| Altitude | 38000 |
| Route | PINEK DCT KORUL DCT EBOMO DCT SKESO P16 TOJAQ |
| Aircraft | B38M/M-SADE3FGILRWY/SB1 |
Departure
| Time | 2026-05-01 11:25 |
|---|---|
| Airport | Faro - Gago Coutinho International Airport (LPFR) |
Arrival
| Time | 2026-05-01 13:35 |
|---|---|
| Airport | Cardiff International Airport (EGFF) |
| Time | Latitude | Longitude | Altitude | Speed | Heading |
|---|---|---|---|---|---|
| 2026-05-01 10:59 | 37.01886 | -7.96699 | 24 ft | 0 kts | 9° |
| 2026-05-01 11:17 | 37.01862 | -7.96706 | 25 ft | 4 kts | 18° |
| 2026-05-01 11:17 | 37.01837 | -7.96719 | 26 ft | 4 kts | 34° |
| 2026-05-01 11:18 | 37.01820 | -7.96741 | 22 ft | 4 kts | 72° |
| 2026-05-01 11:18 | 37.01819 | -7.96759 | 26 ft | 1 kts | 100° |
| 2026-05-01 11:18 | 37.01819 | -7.96762 | 25 ft | 0 kts | 100° |
| 2026-05-01 11:21 | 37.01818 | -7.96753 | 26 ft | 5 kts | 100° |
| 2026-05-01 11:21 | 37.01805 | -7.96661 | 22 ft | 14 kts | 100° |
| 2026-05-01 11:22 | 37.01773 | -7.96539 | 23 ft | 16 kts | 141° |
| 2026-05-01 11:22 | 37.01669 | -7.96539 | 22 ft | 11 kts | 190° |
| 2026-05-01 11:22 | 37.01614 | -7.96490 | 22 ft | 11 kts | 101° |
| 2026-05-01 11:22 | 37.01598 | -7.96383 | 23 ft | 14 kts | 101° |
| 2026-05-01 11:23 | 37.01579 | -7.96256 | 23 ft | 16 kts | 100° |
| 2026-05-01 11:23 | 37.01558 | -7.96110 | 22 ft | 18 kts | 99° |
| 2026-05-01 11:23 | 37.01537 | -7.95950 | 23 ft | 19 kts | 99° |
| 2026-05-01 11:23 | 37.01466 | -7.95838 | 22 ft | 17 kts | 182° |
| 2026-05-01 11:24 | 37.01363 | -7.95865 | 24 ft | 12 kts | 202° |
| 2026-05-01 11:24 | 37.01350 | -7.95941 | 26 ft | 10 kts | 279° |
| 2026-05-01 11:24 | 37.01501 | -7.96996 | 27 ft | 136 kts | 280° |
| 2026-05-01 11:25 | 37.01700 | -7.98365 | 321 ft | 171 kts | 277° |
| 2026-05-01 11:25 | 37.02152 | -8.01855 | 1631 ft | 226 kts | 277° |
| 2026-05-01 11:25 | 37.02397 | -8.03792 | 2912 ft | 220 kts | 281° |
| 2026-05-01 11:26 | 37.02691 | -8.05636 | 4236 ft | 215 kts | 280° |
| 2026-05-01 11:26 | 37.03266 | -8.09424 | 6176 ft | 227 kts | 278° |
| 2026-05-01 11:26 | 37.03810 | -8.11346 | 6905 ft | 248 kts | 302° |
| 2026-05-01 11:27 | 37.05168 | -8.12799 | 7520 ft | 272 kts | 334° |
| 2026-05-01 11:27 | 37.07082 | -8.13260 | 8186 ft | 292 kts | 359° |
| 2026-05-01 11:27 | 37.09150 | -8.13330 | 9034 ft | 300 kts | 356° |
| 2026-05-01 11:27 | 37.11254 | -8.13460 | 9937 ft | 309 kts | 355° |
| 2026-05-01 11:28 | 37.13409 | -8.13603 | 10176 ft | 311 kts | 355° |
| 2026-05-01 11:28 | 37.15613 | -8.13755 | 10790 ft | 323 kts | 355° |
| 2026-05-01 11:28 | 37.17922 | -8.13918 | 11328 ft | 341 kts | 355° |
| 2026-05-01 11:29 | 37.22797 | -8.14266 | 12850 ft | 357 kts | 355° |
| 2026-05-01 11:29 | 37.25291 | -8.14445 | 13709 ft | 361 kts | 355° |
| 2026-05-01 11:29 | 37.30375 | -8.14810 | 15249 ft | 369 kts | 354° |
| 2026-05-01 11:30 | 37.32947 | -8.14996 | 16016 ft | 372 kts | 354° |
| 2026-05-01 11:30 | 37.35541 | -8.15182 | 16744 ft | 375 kts | 353° |
| 2026-05-01 11:30 | 37.38160 | -8.15370 | 17493 ft | 378 kts | 353° |
| 2026-05-01 11:30 | 37.40765 | -8.15558 | 18207 ft | 382 kts | 353° |
| 2026-05-01 11:31 | 37.43426 | -8.15749 | 18865 ft | 384 kts | 352° |
| 2026-05-01 11:31 | 37.46105 | -8.15942 | 19487 ft | 387 kts | 352° |
| 2026-05-01 11:31 | 37.48801 | -8.16137 | 20103 ft | 389 kts | 352° |
| 2026-05-01 11:31 | 37.51514 | -8.16333 | 20732 ft | 391 kts | 352° |
| 2026-05-01 11:32 | 37.54239 | -8.16529 | 21326 ft | 394 kts | 352° |
| 2026-05-01 11:32 | 37.56985 | -8.16728 | 21935 ft | 396 kts | 352° |
| 2026-05-01 11:32 | 37.59747 | -8.16927 | 22545 ft | 399 kts | 351° |
| 2026-05-01 11:32 | 37.62529 | -8.17129 | 23116 ft | 401 kts | 351° |
| 2026-05-01 11:33 | 37.65325 | -8.17331 | 23693 ft | 404 kts | 351° |
| 2026-05-01 11:33 | 37.68139 | -8.17534 | 24169 ft | 406 kts | 351° |
| 2026-05-01 11:33 | 37.70973 | -8.17740 | 24600 ft | 410 kts | 351° |
| 2026-05-01 11:33 | 37.73821 | -8.17947 | 25074 ft | 411 kts | 350° |
| 2026-05-01 11:34 | 37.76687 | -8.18155 | 25529 ft | 413 kts | 350° |
| 2026-05-01 11:34 | 37.79568 | -8.18364 | 25983 ft | 416 kts | 350° |
| 2026-05-01 11:34 | 37.82464 | -8.18574 | 26419 ft | 418 kts | 350° |
| 2026-05-01 11:34 | 37.85375 | -8.18786 | 26852 ft | 420 kts | 350° |
| 2026-05-01 11:35 | 37.88301 | -8.18999 | 27287 ft | 422 kts | 349° |
| 2026-05-01 11:35 | 37.91242 | -8.19214 | 27744 ft | 425 kts | 349° |
| 2026-05-01 11:35 | 37.94198 | -8.19429 | 28114 ft | 428 kts | 349° |
| 2026-05-01 11:35 | 37.97180 | -8.19647 | 28515 ft | 430 kts | 349° |
| 2026-05-01 11:36 | 38.00176 | -8.19866 | 28930 ft | 432 kts | 349° |
| 2026-05-01 11:36 | 38.03185 | -8.20086 | 29320 ft | 434 kts | 349° |
| 2026-05-01 11:36 | 38.06210 | -8.20307 | 29711 ft | 436 kts | 349° |
| 2026-05-01 11:36 | 38.09249 | -8.20529 | 30090 ft | 439 kts | 348° |
| 2026-05-01 11:37 | 38.12303 | -8.20753 | 30419 ft | 441 kts | 348° |
| 2026-05-01 11:37 | 38.15372 | -8.20978 | 30731 ft | 443 kts | 348° |
| 2026-05-01 11:37 | 38.18450 | -8.21204 | 31046 ft | 445 kts | 348° |
| 2026-05-01 11:37 | 38.21553 | -8.21432 | 31345 ft | 447 kts | 348° |
| 2026-05-01 11:38 | 38.24618 | -8.21657 | 31633 ft | 449 kts | 348° |
| 2026-05-01 11:38 | 38.27745 | -8.21887 | 31939 ft | 451 kts | 348° |
| 2026-05-01 11:38 | 38.30873 | -8.22191 | 32232 ft | 451 kts | 347° |
| 2026-05-01 11:38 | 38.34015 | -8.22518 | 32525 ft | 454 kts | 347° |
| 2026-05-01 11:39 | 38.37168 | -8.22839 | 32837 ft | 456 kts | 347° |
| 2026-05-01 11:39 | 38.40334 | -8.23159 | 33178 ft | 456 kts | 347° |
| 2026-05-01 11:39 | 38.43498 | -8.23478 | 33588 ft | 456 kts | 347° |
| 2026-05-01 11:39 | 38.46655 | -8.23798 | 34001 ft | 455 kts | 347° |
| 2026-05-01 11:40 | 38.49805 | -8.24117 | 34373 ft | 454 kts | 347° |
| 2026-05-01 11:40 | 38.52949 | -8.24436 | 34702 ft | 453 kts | 347° |
| 2026-05-01 11:40 | 38.56093 | -8.24754 | 35021 ft | 453 kts | 347° |
| 2026-05-01 11:40 | 38.59234 | -8.25073 | 35336 ft | 453 kts | 346° |
| 2026-05-01 11:41 | 38.62376 | -8.25392 | 35642 ft | 453 kts | 347° |
| 2026-05-01 11:41 | 38.65516 | -8.25711 | 35874 ft | 454 kts | 346° |
| 2026-05-01 11:41 | 38.68667 | -8.26032 | 36156 ft | 454 kts | 346° |
| 2026-05-01 11:41 | 38.71815 | -8.26352 | 36441 ft | 454 kts | 346° |
| 2026-05-01 11:42 | 38.74956 | -8.26673 | 36714 ft | 453 kts | 346° |
| 2026-05-01 11:42 | 38.78100 | -8.26994 | 36977 ft | 453 kts | 346° |
| 2026-05-01 11:42 | 38.81243 | -8.27315 | 37243 ft | 453 kts | 346° |
| 2026-05-01 11:42 | 38.84383 | -8.27634 | 37510 ft | 453 kts | 346° |
| 2026-05-01 11:43 | 38.87524 | -8.27956 | 37735 ft | 453 kts | 346° |
| 2026-05-01 11:43 | 38.90664 | -8.28278 | 37966 ft | 453 kts | 346° |
| 2026-05-01 11:43 | 38.93804 | -8.28600 | 38154 ft | 453 kts | 346° |
| 2026-05-01 11:44 | 39.03211 | -8.29565 | 38171 ft | 451 kts | 346° |
| 2026-05-01 11:44 | 39.09442 | -8.30206 | 38173 ft | 453 kts | 346° |
| 2026-05-01 11:45 | 39.15775 | -8.30859 | 38165 ft | 453 kts | 346° |
| 2026-05-01 11:45 | 39.22016 | -8.31504 | 38166 ft | 453 kts | 346° |
| 2026-05-01 11:46 | 39.28308 | -8.32154 | 38182 ft | 454 kts | 346° |
| 2026-05-01 11:46 | 39.34614 | -8.32808 | 38168 ft | 455 kts | 347° |
| 2026-05-01 11:47 | 39.40938 | -8.33465 | 38165 ft | 456 kts | 347° |
| 2026-05-01 11:47 | 39.47247 | -8.34121 | 38165 ft | 456 kts | 346° |
| 2026-05-01 11:48 | 39.53570 | -8.34779 | 38180 ft | 458 kts | 347° |
| 2026-05-01 11:48 | 39.59947 | -8.35445 | 38170 ft | 460 kts | 347° |
| 2026-05-01 11:49 | 39.66328 | -8.36112 | 38169 ft | 460 kts | 347° |
| 2026-05-01 11:49 | 39.72707 | -8.36781 | 38168 ft | 460 kts | 347° |
| 2026-05-01 11:50 | 39.79093 | -8.37451 | 38166 ft | 461 kts | 347° |
| 2026-05-01 11:50 | 39.85490 | -8.38124 | 38161 ft | 461 kts | 347° |
| 2026-05-01 11:51 | 39.91886 | -8.38798 | 38156 ft | 461 kts | 347° |
| 2026-05-01 11:51 | 39.98283 | -8.39474 | 38154 ft | 462 kts | 347° |
| 2026-05-01 11:52 | 40.04695 | -8.40151 | 38169 ft | 463 kts | 347° |
| 2026-05-01 11:52 | 40.11117 | -8.40832 | 38163 ft | 462 kts | 347° |
| 2026-05-01 11:53 | 40.17531 | -8.41513 | 38176 ft | 463 kts | 348° |
| 2026-05-01 11:53 | 40.23961 | -8.42196 | 38168 ft | 465 kts | 348° |
| 2026-05-01 11:54 | 40.30402 | -8.42883 | 38168 ft | 464 kts | 348° |
| 2026-05-01 11:54 | 40.36840 | -8.43570 | 38173 ft | 464 kts | 348° |
| 2026-05-01 11:55 | 40.42197 | -8.44143 | 38167 ft | 464 kts | 348° |
| 2026-05-01 11:55 | 40.48627 | -8.44832 | 38172 ft | 464 kts | 348° |
| 2026-05-01 11:56 | 40.56116 | -8.45636 | 38169 ft | 464 kts | 348° |
| 2026-05-01 11:56 | 40.61512 | -8.46216 | 38187 ft | 465 kts | 348° |
| 2026-05-01 11:57 | 40.67970 | -8.46912 | 38161 ft | 465 kts | 348° |
| 2026-05-01 11:57 | 40.74427 | -8.47609 | 38176 ft | 467 kts | 348° |
| 2026-05-01 11:58 | 40.80900 | -8.48310 | 38177 ft | 466 kts | 348° |
| 2026-05-01 11:59 | 40.90627 | -8.49365 | 38186 ft | 468 kts | 348° |
| 2026-05-01 11:59 | 40.97117 | -8.50071 | 38183 ft | 468 kts | 348° |
| 2026-05-01 12:00 | 41.06820 | -8.51128 | 38179 ft | 468 kts | 349° |
| 2026-05-01 12:01 | 41.16587 | -8.52196 | 38159 ft | 470 kts | 349° |
| 2026-05-01 12:01 | 41.23099 | -8.52909 | 38154 ft | 470 kts | 349° |
| 2026-05-01 12:02 | 41.29622 | -8.53626 | 38166 ft | 471 kts | 349° |
| 2026-05-01 12:02 | 41.36159 | -8.54345 | 38157 ft | 471 kts | 349° |
| 2026-05-01 12:03 | 41.42688 | -8.55064 | 38156 ft | 471 kts | 349° |
| 2026-05-01 12:03 | 41.49224 | -8.55787 | 38170 ft | 472 kts | 350° |
| 2026-05-01 12:04 | 41.55773 | -8.56511 | 38155 ft | 472 kts | 350° |
| 2026-05-01 12:04 | 41.62328 | -8.57238 | 38153 ft | 473 kts | 350° |
| 2026-05-01 12:05 | 41.68882 | -8.57966 | 38171 ft | 473 kts | 350° |
| 2026-05-01 12:05 | 41.78750 | -8.59065 | 38147 ft | 475 kts | 350° |
| 2026-05-01 12:06 | 41.85368 | -8.59120 | 38123 ft | 483 kts | 9° |
| 2026-05-01 12:06 | 41.91721 | -8.56162 | 38112 ft | 490 kts | 18° |
| 2026-05-01 12:07 | 41.98077 | -8.52839 | 38164 ft | 491 kts | 19° |
| 2026-05-01 12:07 | 42.04415 | -8.49447 | 38132 ft | 490 kts | 19° |
| 2026-05-01 12:08 | 42.10752 | -8.46041 | 38144 ft | 490 kts | 19° |
| 2026-05-01 12:08 | 42.17080 | -8.42632 | 38139 ft | 490 kts | 19° |
| 2026-05-01 12:09 | 42.23406 | -8.39218 | 38142 ft | 490 kts | 19° |
| 2026-05-01 12:09 | 42.29737 | -8.35792 | 38145 ft | 490 kts | 19° |
| 2026-05-01 12:10 | 42.39204 | -8.30656 | 38138 ft | 488 kts | 20° |
| 2026-05-01 12:11 | 42.48638 | -8.25522 | 38151 ft | 487 kts | 20° |
| 2026-05-01 12:11 | 42.54930 | -8.22089 | 38150 ft | 487 kts | 20° |
| 2026-05-01 12:12 | 42.61214 | -8.18652 | 38135 ft | 487 kts | 20° |
| 2026-05-01 12:12 | 42.67500 | -8.15207 | 38147 ft | 488 kts | 20° |
| 2026-05-01 12:13 | 42.73788 | -8.11753 | 38152 ft | 487 kts | 20° |
| 2026-05-01 12:13 | 42.80077 | -8.08291 | 38144 ft | 487 kts | 20° |
| 2026-05-01 12:14 | 42.86363 | -8.04823 | 38140 ft | 487 kts | 20° |
| 2026-05-01 12:14 | 42.92643 | -8.01350 | 38140 ft | 487 kts | 20° |
| 2026-05-01 12:15 | 42.98926 | -7.97868 | 38142 ft | 488 kts | 20° |
| 2026-05-01 12:15 | 43.05213 | -7.94377 | 38139 ft | 487 kts | 20° |
| 2026-05-01 12:16 | 43.11494 | -7.90881 | 38135 ft | 488 kts | 20° |
| 2026-05-01 12:16 | 43.17780 | -7.87374 | 38148 ft | 488 kts | 21° |
| 2026-05-01 12:17 | 43.24066 | -7.83859 | 38135 ft | 488 kts | 21° |
| 2026-05-01 12:17 | 43.30362 | -7.80332 | 38136 ft | 489 kts | 21° |
| 2026-05-01 12:18 | 43.36648 | -7.76802 | 38142 ft | 489 kts | 21° |
| 2026-05-01 12:18 | 43.42946 | -7.73257 | 38142 ft | 489 kts | 21° |
| 2026-05-01 12:19 | 43.49244 | -7.69704 | 38152 ft | 489 kts | 21° |
| 2026-05-01 12:19 | 43.55500 | -7.66167 | 38143 ft | 489 kts | 21° |
| 2026-05-01 12:20 | 43.61791 | -7.62601 | 38155 ft | 490 kts | 21° |
| 2026-05-01 12:20 | 43.68093 | -7.59021 | 38144 ft | 489 kts | 21° |
| 2026-05-01 12:21 | 43.74364 | -7.55452 | 38153 ft | 487 kts | 21° |
| 2026-05-01 12:21 | 43.80634 | -7.51874 | 38165 ft | 488 kts | 21° |
| 2026-05-01 12:22 | 43.86911 | -7.48285 | 38160 ft | 488 kts | 21° |
| 2026-05-01 12:22 | 43.93184 | -7.44689 | 38169 ft | 488 kts | 21° |
| 2026-05-01 12:23 | 43.99450 | -7.41089 | 38187 ft | 488 kts | 21° |
| 2026-05-01 12:23 | 44.05734 | -7.37471 | 38165 ft | 489 kts | 21° |
| 2026-05-01 12:24 | 44.12018 | -7.33844 | 38166 ft | 489 kts | 21° |
| 2026-05-01 12:24 | 44.18301 | -7.30210 | 38170 ft | 489 kts | 21° |
| 2026-05-01 12:25 | 44.27722 | -7.24744 | 38173 ft | 489 kts | 21° |
| 2026-05-01 12:26 | 44.34010 | -7.21086 | 38155 ft | 489 kts | 22° |
| 2026-05-01 12:26 | 44.43415 | -7.15598 | 38174 ft | 488 kts | 22° |
| 2026-05-01 12:27 | 44.52815 | -7.10093 | 38179 ft | 488 kts | 22° |
| 2026-05-01 12:28 | 44.62219 | -7.04569 | 38178 ft | 488 kts | 22° |
| 2026-05-01 12:29 | 44.71622 | -6.99026 | 38181 ft | 488 kts | 22° |
| 2026-05-01 12:29 | 44.81019 | -6.93468 | 38192 ft | 489 kts | 22° |
| 2026-05-01 12:30 | 44.89965 | -6.86687 | 38163 ft | 490 kts | 30° |
| 2026-05-01 12:31 | 44.95842 | -6.81860 | 38191 ft | 488 kts | 30° |
| 2026-05-01 12:31 | 45.01738 | -6.77000 | 38195 ft | 488 kts | 30° |
| 2026-05-01 12:32 | 45.07563 | -6.72187 | 38190 ft | 488 kts | 30° |
| 2026-05-01 12:32 | 45.16354 | -6.64902 | 38192 ft | 488 kts | 30° |
| 2026-05-01 12:33 | 45.22213 | -6.60032 | 38199 ft | 489 kts | 30° |
| 2026-05-01 12:33 | 45.28071 | -6.55152 | 38184 ft | 488 kts | 30° |
| 2026-05-01 12:34 | 45.33922 | -6.50264 | 38197 ft | 487 kts | 30° |
| 2026-05-01 12:34 | 45.39769 | -6.45369 | 38214 ft | 487 kts | 30° |
| 2026-05-01 12:35 | 45.45611 | -6.40465 | 38203 ft | 488 kts | 30° |
| 2026-05-01 12:35 | 45.51461 | -6.35543 | 38203 ft | 488 kts | 30° |
| 2026-05-01 12:36 | 45.57312 | -6.30609 | 38202 ft | 488 kts | 30° |
| 2026-05-01 12:36 | 45.63149 | -6.25674 | 38190 ft | 489 kts | 30° |
| 2026-05-01 12:37 | 45.68991 | -6.20723 | 38206 ft | 488 kts | 30° |
| 2026-05-01 12:37 | 45.74786 | -6.15799 | 38205 ft | 488 kts | 30° |
| 2026-05-01 12:38 | 45.80618 | -6.10832 | 38208 ft | 488 kts | 30° |
| 2026-05-01 12:38 | 45.86443 | -6.05858 | 38211 ft | 488 kts | 30° |
| 2026-05-01 12:39 | 45.92283 | -6.00860 | 38211 ft | 489 kts | 31° |
| 2026-05-01 12:39 | 45.98122 | -5.95850 | 38214 ft | 489 kts | 31° |
| 2026-05-01 12:40 | 46.03950 | -5.90837 | 38221 ft | 488 kts | 31° |
| 2026-05-01 12:40 | 46.09772 | -5.85816 | 38213 ft | 488 kts | 31° |
| 2026-05-01 12:41 | 46.15593 | -5.80784 | 38214 ft | 488 kts | 31° |
| 2026-05-01 12:41 | 46.21415 | -5.75739 | 38214 ft | 488 kts | 31° |
| 2026-05-01 12:42 | 46.27232 | -5.70686 | 38215 ft | 488 kts | 31° |
| 2026-05-01 12:42 | 46.33046 | -5.65621 | 38215 ft | 488 kts | 31° |
| 2026-05-01 12:43 | 46.38860 | -5.60546 | 38207 ft | 488 kts | 30° |
| 2026-05-01 12:43 | 46.43677 | -5.56329 | 38236 ft | 487 kts | 31° |
| 2026-05-01 12:44 | 46.49475 | -5.51243 | 38220 ft | 488 kts | 31° |
| 2026-05-01 12:45 | 46.61078 | -5.41026 | 38223 ft | 488 kts | 31° |
| 2026-05-01 12:45 | 46.66882 | -5.35897 | 38222 ft | 488 kts | 31° |
| 2026-05-01 12:46 | 46.72672 | -5.30767 | 38225 ft | 488 kts | 31° |
| 2026-05-01 12:46 | 46.78461 | -5.25623 | 38220 ft | 486 kts | 31° |
| 2026-05-01 12:47 | 46.84223 | -5.20491 | 38225 ft | 485 kts | 31° |
| 2026-05-01 12:47 | 46.89975 | -5.15356 | 38228 ft | 486 kts | 31° |
| 2026-05-01 12:48 | 46.95743 | -5.10192 | 38225 ft | 486 kts | 31° |
| 2026-05-01 12:48 | 47.01509 | -5.05017 | 38224 ft | 486 kts | 31° |
| 2026-05-01 12:49 | 47.07266 | -4.99837 | 38239 ft | 486 kts | 31° |
| 2026-05-01 12:49 | 47.13037 | -4.94631 | 38228 ft | 487 kts | 31° |
| 2026-05-01 12:50 | 47.18750 | -4.89465 | 38226 ft | 484 kts | 31° |
| 2026-05-01 12:50 | 47.24486 | -4.84264 | 38221 ft | 484 kts | 31° |
| 2026-05-01 12:51 | 47.30219 | -4.79051 | 38226 ft | 484 kts | 31° |
| 2026-05-01 12:52 | 47.38825 | -4.71202 | 38222 ft | 485 kts | 31° |
| 2026-05-01 12:52 | 47.47433 | -4.63321 | 38222 ft | 485 kts | 31° |
| 2026-05-01 12:53 | 47.56038 | -4.55413 | 38217 ft | 486 kts | 31° |
| 2026-05-01 12:54 | 47.61776 | -4.50124 | 38217 ft | 486 kts | 31° |
| 2026-05-01 12:54 | 47.70378 | -4.42171 | 38214 ft | 486 kts | 32° |
| 2026-05-01 12:55 | 47.78980 | -4.34187 | 38216 ft | 486 kts | 32° |
| 2026-05-01 12:56 | 47.84941 | -4.29544 | 38234 ft | 483 kts | 21° |
| 2026-05-01 12:56 | 47.91178 | -4.25709 | 38212 ft | 485 kts | 21° |
| 2026-05-01 12:57 | 47.97412 | -4.21877 | 38207 ft | 482 kts | 21° |
| 2026-05-01 12:57 | 48.06692 | -4.16158 | 38213 ft | 481 kts | 21° |
| 2026-05-01 12:58 | 48.12883 | -4.12331 | 38204 ft | 481 kts | 21° |
| 2026-05-01 12:59 | 48.22172 | -4.06570 | 38204 ft | 481 kts | 22° |
| 2026-05-01 12:59 | 48.31410 | -4.00818 | 38202 ft | 482 kts | 22° |
| 2026-05-01 13:00 | 48.40702 | -3.95009 | 38204 ft | 483 kts | 22° |
| 2026-05-01 13:01 | 48.49998 | -3.89174 | 38201 ft | 483 kts | 22° |
| 2026-05-01 13:02 | 48.59242 | -3.83351 | 38224 ft | 479 kts | 22° |
| 2026-05-01 13:07 | 49.26740 | -3.40104 | 38231 ft | 478 kts | 23° |
| 2026-05-01 13:08 | 49.32917 | -3.36082 | 37193 ft | 484 kts | 23° |
| 2026-05-01 13:08 | 49.35998 | -3.34072 | 36264 ft | 489 kts | 23° |
| 2026-05-01 13:08 | 49.39150 | -3.32012 | 35761 ft | 483 kts | 24° |
| 2026-05-01 13:08 | 49.42189 | -3.30025 | 35161 ft | 481 kts | 24° |
| 2026-05-01 13:09 | 49.45264 | -3.28010 | 34539 ft | 479 kts | 24° |
| 2026-05-01 13:09 | 49.48323 | -3.26003 | 33937 ft | 477 kts | 24° |
| 2026-05-01 13:09 | 49.51360 | -3.24009 | 33343 ft | 473 kts | 24° |
| 2026-05-01 13:09 | 49.54379 | -3.22023 | 32784 ft | 469 kts | 24° |
| 2026-05-01 13:10 | 49.57341 | -3.20072 | 32234 ft | 457 kts | 24° |
| 2026-05-01 13:10 | 49.60222 | -3.18173 | 31713 ft | 445 kts | 24° |
| 2026-05-01 13:10 | 49.63034 | -3.16317 | 31215 ft | 433 kts | 24° |
| 2026-05-01 13:10 | 49.65767 | -3.14511 | 30706 ft | 423 kts | 24° |
| 2026-05-01 13:11 | 49.68433 | -3.12747 | 30222 ft | 412 kts | 25° |
| 2026-05-01 13:11 | 49.71039 | -3.11020 | 29710 ft | 402 kts | 25° |
| 2026-05-01 13:11 | 49.73596 | -3.09339 | 29251 ft | 402 kts | 22° |
| 2026-05-01 13:11 | 49.76333 | -3.08236 | 28709 ft | 410 kts | 6° |
| 2026-05-01 13:12 | 49.79177 | -3.08328 | 28226 ft | 411 kts | 349° |
| 2026-05-01 13:12 | 49.81909 | -3.09607 | 27817 ft | 411 kts | 333° |
| 2026-05-01 13:12 | 49.84324 | -3.11913 | 27358 ft | 406 kts | 317° |
| 2026-05-01 13:12 | 49.86283 | -3.14992 | 26899 ft | 400 kts | 309° |
| 2026-05-01 13:13 | 49.88344 | -3.17903 | 26395 ft | 404 kts | 324° |
| 2026-05-01 13:13 | 49.90804 | -3.20027 | 25970 ft | 404 kts | 330° |
| 2026-05-01 13:13 | 49.93278 | -3.22058 | 25568 ft | 402 kts | 330° |
| 2026-05-01 13:13 | 49.95753 | -3.24063 | 25138 ft | 401 kts | 330° |
| 2026-05-01 13:14 | 49.98225 | -3.26050 | 24709 ft | 400 kts | 330° |
| 2026-05-01 13:14 | 50.00694 | -3.28028 | 24296 ft | 399 kts | 330° |
| 2026-05-01 13:14 | 50.03161 | -3.30003 | 23865 ft | 398 kts | 330° |
| 2026-05-01 13:14 | 50.05613 | -3.31968 | 23370 ft | 398 kts | 330° |
| 2026-05-01 13:15 | 50.08073 | -3.33941 | 22873 ft | 397 kts | 330° |
| 2026-05-01 13:15 | 50.10517 | -3.35905 | 22497 ft | 393 kts | 330° |
| 2026-05-01 13:15 | 50.12936 | -3.37850 | 22121 ft | 390 kts | 330° |
| 2026-05-01 13:15 | 50.15338 | -3.39783 | 21712 ft | 387 kts | 330° |
| 2026-05-01 13:16 | 50.17724 | -3.41706 | 21310 ft | 385 kts | 330° |
| 2026-05-01 13:16 | 50.20092 | -3.43616 | 20905 ft | 383 kts | 330° |
| 2026-05-01 13:16 | 50.22449 | -3.45520 | 20520 ft | 380 kts | 330° |
| 2026-05-01 13:17 | 50.29443 | -3.51181 | 19267 ft | 377 kts | 330° |
| 2026-05-01 13:17 | 50.31757 | -3.53058 | 18896 ft | 371 kts | 330° |
| 2026-05-01 13:18 | 50.36219 | -3.56684 | 18118 ft | 357 kts | 330° |
| 2026-05-01 13:18 | 50.38398 | -3.58458 | 17730 ft | 350 kts | 330° |
| 2026-05-01 13:18 | 50.40533 | -3.60197 | 17355 ft | 342 kts | 330° |
| 2026-05-01 13:18 | 50.42623 | -3.61901 | 17020 ft | 335 kts | 330° |
| 2026-05-01 13:19 | 50.44686 | -3.63587 | 16667 ft | 336 kts | 330° |
| 2026-05-01 13:19 | 50.46791 | -3.65262 | 16258 ft | 342 kts | 335° |
| 2026-05-01 13:19 | 50.51503 | -3.65819 | 15571 ft | 346 kts | 5° |
| 2026-05-01 13:20 | 50.53898 | -3.65431 | 15223 ft | 345 kts | 6° |
| 2026-05-01 13:20 | 50.56285 | -3.65015 | 14857 ft | 344 kts | 6° |
| 2026-05-01 13:20 | 50.58654 | -3.64584 | 14510 ft | 342 kts | 6° |
| 2026-05-01 13:21 | 50.63374 | -3.63696 | 13761 ft | 341 kts | 6° |
| 2026-05-01 13:21 | 50.65725 | -3.63248 | 13367 ft | 340 kts | 6° |
| 2026-05-01 13:21 | 50.68060 | -3.62802 | 12998 ft | 338 kts | 7° |
| 2026-05-01 13:21 | 50.70387 | -3.62357 | 12644 ft | 336 kts | 7° |
| 2026-05-01 13:22 | 50.72699 | -3.61915 | 12282 ft | 334 kts | 7° |
| 2026-05-01 13:22 | 50.74995 | -3.61474 | 11926 ft | 332 kts | 7° |
| 2026-05-01 13:22 | 50.77285 | -3.61034 | 11576 ft | 330 kts | 7° |
| 2026-05-01 13:22 | 50.79556 | -3.60597 | 11232 ft | 328 kts | 7° |
| 2026-05-01 13:23 | 50.81819 | -3.60162 | 10883 ft | 327 kts | 7° |
| 2026-05-01 13:23 | 50.84068 | -3.59728 | 10555 ft | 325 kts | 7° |
| 2026-05-01 13:23 | 50.86291 | -3.59300 | 10364 ft | 318 kts | 7° |
| 2026-05-01 13:23 | 50.88458 | -3.58882 | 10234 ft | 309 kts | 7° |
| 2026-05-01 13:24 | 50.90577 | -3.58473 | 9991 ft | 305 kts | 7° |
| 2026-05-01 13:24 | 50.92674 | -3.57987 | 9615 ft | 304 kts | 16° |
| 2026-05-01 13:24 | 50.94527 | -3.56458 | 9192 ft | 300 kts | 44° |
| 2026-05-01 13:25 | 50.97419 | -3.51809 | 8603 ft | 293 kts | 48° |
| 2026-05-01 13:25 | 50.98831 | -3.49493 | 8309 ft | 291 kts | 49° |
| 2026-05-01 13:25 | 51.00233 | -3.47178 | 8007 ft | 290 kts | 49° |
| 2026-05-01 13:25 | 51.01652 | -3.44901 | 7673 ft | 290 kts | 43° |
| 2026-05-01 13:26 | 51.03330 | -3.43142 | 7203 ft | 288 kts | 31° |
| 2026-05-01 13:26 | 51.05049 | -3.41550 | 6785 ft | 284 kts | 32° |
| 2026-05-01 13:26 | 51.06725 | -3.39962 | 6428 ft | 277 kts | 32° |
| 2026-05-01 13:26 | 51.08358 | -3.38396 | 6041 ft | 271 kts | 32° |
| 2026-05-01 13:27 | 51.09951 | -3.36855 | 5671 ft | 265 kts | 32° |
| 2026-05-01 13:27 | 51.11486 | -3.35364 | 5450 ft | 249 kts | 32° |
| 2026-05-01 13:27 | 51.14282 | -3.32637 | 4944 ft | 231 kts | 31° |
| 2026-05-01 13:28 | 51.16978 | -3.30005 | 4422 ft | 222 kts | 32° |
| 2026-05-01 13:28 | 51.18263 | -3.28742 | 4171 ft | 211 kts | 32° |
| 2026-05-01 13:29 | 51.20679 | -3.26372 | 3745 ft | 200 kts | 32° |
| 2026-05-01 13:29 | 51.23043 | -3.24050 | 3356 ft | 199 kts | 32° |
| 2026-05-01 13:30 | 51.27727 | -3.19441 | 2734 ft | 197 kts | 31° |
| 2026-05-01 13:31 | 51.30058 | -3.17141 | 2530 ft | 197 kts | 32° |
| 2026-05-01 13:31 | 51.33378 | -3.16259 | 2314 ft | 188 kts | 323° |
| 2026-05-01 13:32 | 51.34876 | -3.19123 | 2086 ft | 161 kts | 294° |
| 2026-05-01 13:33 | 51.36350 | -3.23853 | 1499 ft | 157 kts | 294° |
| 2026-05-01 13:33 | 51.37298 | -3.26860 | 1099 ft | 143 kts | 295° |
| 2026-05-01 13:34 | 51.38168 | -3.29606 | 713 ft | 136 kts | 296° |
| 2026-05-01 13:34 | 51.39024 | -3.32309 | 354 ft | 136 kts | 295° |
| 2026-05-01 13:35 | 51.39746 | -3.34604 | 225 ft | 62 kts | 297° |
| 2026-05-01 13:35 | 51.39911 | -3.35125 | 221 ft | 45 kts | 296° |
| 2026-05-01 13:35 | 51.40086 | -3.35509 | 223 ft | 13 kts | 22° |
| 2026-05-01 13:36 | 51.40151 | -3.35414 | 225 ft | 14 kts | 65° |
| 2026-05-01 13:36 | 51.40139 | -3.35260 | 225 ft | 16 kts | 117° |
| 2026-05-01 13:36 | 51.40024 | -3.34894 | 225 ft | 21 kts | 116° |
| 2026-05-01 13:37 | 51.39954 | -3.34673 | 226 ft | 23 kts | 117° |
| 2026-05-01 13:37 | 51.39879 | -3.34431 | 224 ft | 25 kts | 117° |
| 2026-05-01 13:37 | 51.39802 | -3.34186 | 224 ft | 23 kts | 116° |
| 2026-05-01 13:37 | 51.39734 | -3.33975 | 224 ft | 22 kts | 117° |
| 2026-05-01 13:38 | 51.39684 | -3.33699 | 224 ft | 10 kts | 37° |
| 2026-05-01 13:38 | 51.39751 | -3.33642 | 225 ft | 12 kts | 27° |
| 2026-05-01 13:38 | 51.39799 | -3.33661 | 224 ft | 7 kts | 285° |
| 2026-05-01 13:39 | 51.39797 | -3.33728 | 224 ft | 4 kts | 265° |
| 2026-05-01 13:39 | 51.39795 | -3.33750 | 224 ft | 0 kts | 264° |